createdAt,value
2023-04-21T00:00:08.583Z,12.00
2023-04-21T00:04:15.563Z,12.01
2023-04-21T00:08:19.682Z,12.01
2023-04-21T00:12:25.872Z,12.02
2023-04-21T00:16:30.059Z,12.01
2023-04-21T00:20:35.264Z,12.00
2023-04-21T00:24:39.271Z,11.98
2023-04-21T00:28:42.332Z,11.97
2023-04-21T00:32:46.316Z,11.94
2023-04-21T00:36:51.498Z,11.90
2023-04-21T00:40:55.196Z,11.84
2023-04-21T00:44:58.554Z,11.78
2023-04-21T00:49:05.075Z,11.74
2023-04-21T00:53:11.167Z,11.70
2023-04-21T00:57:16.489Z,11.65
2023-04-21T01:01:19.577Z,11.63
2023-04-21T01:05:23.067Z,11.63
2023-04-21T01:09:28.530Z,11.63
2023-04-21T01:13:32.361Z,11.60
2023-04-21T01:17:38.847Z,11.54
2023-04-21T01:21:43.959Z,11.48
2023-04-21T01:25:47.790Z,11.40
2023-04-21T01:29:54.403Z,11.34
2023-04-21T01:33:57.661Z,11.27
2023-04-21T01:38:02.814Z,11.23
2023-04-21T01:42:05.936Z,11.16
2023-04-21T01:46:09.904Z,11.10
2023-04-21T01:50:13.591Z,11.05
2023-04-21T01:54:18.477Z,11.01
2023-04-21T01:58:24.207Z,10.96
2023-04-21T02:02:28.297Z,10.93
2023-04-21T02:06:32.073Z,10.91
2023-04-21T02:10:36.980Z,10.92
2023-04-21T02:14:41.354Z,10.91
2023-04-21T02:18:45.299Z,10.92
2023-04-21T02:22:48.287Z,10.94
2023-04-21T02:26:54.166Z,10.99
2023-04-21T02:30:57.813Z,11.00
2023-04-21T02:35:01.827Z,11.01
2023-04-21T02:39:05.848Z,10.98
2023-04-21T02:43:16.717Z,10.97
2023-04-21T02:47:20.725Z,10.94
2023-04-21T02:51:24.405Z,10.92
2023-04-21T02:55:28.896Z,10.87
2023-04-21T02:59:34.971Z,10.85
2023-04-21T03:03:38.789Z,10.76
2023-04-21T03:07:42.425Z,10.70
2023-04-21T03:11:45.407Z,10.64
2023-04-21T03:15:50.781Z,10.58
2023-04-21T03:19:54.071Z,10.51
2023-04-21T03:23:57.516Z,10.46
2023-04-21T03:28:00.963Z,10.37
2023-04-21T03:32:05.992Z,10.33
2023-04-21T03:36:09.861Z,10.26
2023-04-21T03:40:13.434Z,10.22
2023-04-21T03:44:16.464Z,10.19
2023-04-21T03:48:21.475Z,10.18
2023-04-21T03:52:25.101Z,10.14
2023-04-21T03:56:28.862Z,10.09
2023-04-21T04:00:32.107Z,10.03
2023-04-21T04:04:37.534Z,9.99
2023-04-21T04:08:41.238Z,9.98
2023-04-21T04:12:44.786Z,10.02
2023-04-21T04:16:48.273Z,10.02
2023-04-21T04:20:53.175Z,10.09
2023-04-21T04:24:57.358Z,10.13
2023-04-21T04:29:03.047Z,10.17
2023-04-21T04:33:07.175Z,10.21
2023-04-21T04:37:14.163Z,10.26
2023-04-21T04:41:19.738Z,10.34
2023-04-21T04:45:23.734Z,10.39
2023-04-21T04:49:27.504Z,10.47
2023-04-21T04:53:32.815Z,10.54
2023-04-21T04:57:38.592Z,10.62
2023-04-21T05:01:43.372Z,10.72
2023-04-21T05:05:47.459Z,10.83
2023-04-21T05:09:52.291Z,10.97
2023-04-21T05:13:55.762Z,11.09
2023-04-21T05:17:59.616Z,11.15
2023-04-21T05:22:02.705Z,11.35
2023-04-21T05:26:07.875Z,11.47
2023-04-21T05:30:12.543Z,11.63
2023-04-21T05:34:16.062Z,11.75
2023-04-21T05:38:19.262Z,11.87
2023-04-21T05:42:24.247Z,12.00
2023-04-21T05:46:27.298Z,12.12
2023-04-21T05:50:34.162Z,12.24
2023-04-21T05:54:37.402Z,12.38
2023-04-21T05:58:42.801Z,12.51
2023-04-21T06:02:46.360Z,12.67
2023-04-21T06:06:50.279Z,12.83
2023-04-21T06:10:53.461Z,13.00
2023-04-21T06:14:58.727Z,13.16
2023-04-21T06:19:01.907Z,13.31
2023-04-21T06:23:05.361Z,13.54
2023-04-21T06:27:13.116Z,13.72
2023-04-21T06:31:19.612Z,13.90
2023-04-21T06:35:22.905Z,14.08
2023-04-21T06:39:26.643Z,14.27
2023-04-21T06:43:29.850Z,14.51
2023-04-21T06:47:34.974Z,14.75
2023-04-21T06:51:38.234Z,14.98
2023-04-21T06:55:41.815Z,15.27
2023-04-21T06:59:46.284Z,15.56
2023-04-21T07:03:51.098Z,15.91
2023-04-21T07:07:57.172Z,16.24
2023-04-21T07:12:00.244Z,16.51
2023-04-21T07:16:03.200Z,16.87
2023-04-21T07:20:09.694Z,17.22
2023-04-21T07:24:15.218Z,17.58
2023-04-21T07:28:18.770Z,17.98
2023-04-21T07:32:23.697Z,18.49
2023-04-21T07:36:31.041Z,18.97
2023-04-21T07:40:34.332Z,19.43
2023-04-21T07:44:39.560Z,19.80
2023-04-21T07:48:42.595Z,20.18
2023-04-21T07:52:48.254Z,20.54
2023-04-21T07:56:53.515Z,20.90
2023-04-21T08:00:57.372Z,21.24
2023-04-21T08:05:01.309Z,21.48
2023-04-21T08:09:06.149Z,21.74
2023-04-21T08:13:09.272Z,21.96
2023-04-21T08:17:13.480Z,22.15
2023-04-21T08:21:16.871Z,22.36
2023-04-21T08:25:22.008Z,22.58
2023-04-21T08:29:25.331Z,22.76
2023-04-21T08:33:29.486Z,22.95
2023-04-21T08:37:32.538Z,23.13
2023-04-21T08:41:39.813Z,23.20
2023-04-21T08:45:43.942Z,23.25
2023-04-21T08:49:51.382Z,23.20
2023-04-21T08:53:56.307Z,23.10
2023-04-21T08:58:01.569Z,23.02
2023-04-21T09:02:08.970Z,22.99
2023-04-21T09:06:14.455Z,22.99
2023-04-21T09:10:24.028Z,23.09
2023-04-21T09:14:34.616Z,23.25
2023-04-21T09:18:40.554Z,23.36
2023-04-21T09:22:43.946Z,23.55
2023-04-21T09:26:51.923Z,23.72
2023-04-21T09:30:58.698Z,23.82
2023-04-21T09:35:02.449Z,23.89
2023-04-21T09:43:14.032Z,24.16
2023-04-21T09:47:20.755Z,24.28
2023-04-21T09:51:42.846Z,24.32
2023-04-21T09:55:53.442Z,24.44
2023-04-21T10:00:01.407Z,24.57
2023-04-21T10:04:07.019Z,24.71
2023-04-21T10:08:11.787Z,24.96
2023-04-21T10:12:17.209Z,25.10
2023-04-21T10:16:21.980Z,25.13
2023-04-21T10:20:27.117Z,25.29
2023-04-21T10:24:30.875Z,25.40
2023-04-21T10:28:45.589Z,25.54
2023-04-21T10:32:48.872Z,25.53
2023-04-21T10:37:16.742Z,25.62
2023-04-21T10:41:30.661Z,25.76
2023-04-21T10:45:34.190Z,25.82
2023-04-21T10:49:40.863Z,25.90
2023-04-21T10:53:47.245Z,25.87
2023-04-21T10:57:50.760Z,25.80
2023-04-21T11:01:55.072Z,25.66
2023-04-21T11:05:58.839Z,25.56
2023-04-21T11:10:05.657Z,25.54
2023-04-21T11:14:08.916Z,25.48
2023-04-21T11:18:12.484Z,25.45
2023-04-21T11:22:17.884Z,25.45
2023-04-21T11:26:32.429Z,25.50
2023-04-21T11:30:36.794Z,25.58
2023-04-21T11:34:40.672Z,25.72
2023-04-21T11:38:44.096Z,26.00
2023-04-21T11:42:49.747Z,26.26
2023-04-21T11:46:53.024Z,26.52
2023-04-21T11:50:56.893Z,26.76
2023-04-21T11:55:02.215Z,27.03
2023-04-21T11:59:12.694Z,27.23
2023-04-21T12:03:16.640Z,27.41
2023-04-21T12:07:24.870Z,27.53
2023-04-21T12:11:29.328Z,27.61
2023-04-21T12:15:34.922Z,27.71
2023-04-21T12:19:39.803Z,27.76
2023-04-21T12:23:45.135Z,27.76
2023-04-21T12:27:51.467Z,27.77
2023-04-21T12:31:56.868Z,27.76
2023-04-21T12:36:01.324Z,27.72
2023-04-21T12:40:05.182Z,27.70
2023-04-21T12:44:08.526Z,27.71
2023-04-21T12:48:13.841Z,27.75
2023-04-21T12:52:17.037Z,27.78
2023-04-21T12:56:20.531Z,27.76
2023-04-21T13:00:24.996Z,27.76
2023-04-21T13:04:30.716Z,27.75
2023-04-21T13:08:34.157Z,27.72
2023-04-21T13:12:37.437Z,27.70
2023-04-21T13:16:41.303Z,27.65
2023-04-21T13:20:46.028Z,27.67
2023-04-21T13:24:49.002Z,27.68
2023-04-21T13:28:52.390Z,27.69
2023-04-21T13:32:55.963Z,27.68
2023-04-21T13:37:00.980Z,27.66
2023-04-21T13:41:05.504Z,27.59
2023-04-21T13:45:09.712Z,27.58
2023-04-21T13:49:14.895Z,27.56
2023-04-21T13:53:21.324Z,27.53
2023-04-21T13:57:26.583Z,27.46
2023-04-21T14:01:29.680Z,27.39
2023-04-21T14:05:33.516Z,27.35
2023-04-21T14:09:38.304Z,27.27
2023-04-21T14:13:51.946Z,27.21
2023-04-21T14:18:03.111Z,27.18
2023-04-21T14:22:06.122Z,27.22
2023-04-21T14:26:10.914Z,27.25
2023-04-21T14:30:15.366Z,27.30
2023-04-21T14:34:18.882Z,27.30
2023-04-21T14:38:22.252Z,27.31
2023-04-21T14:42:27.306Z,27.28
2023-04-21T14:46:30.717Z,27.23
2023-04-21T14:50:34.441Z,27.18
2023-04-21T14:54:37.498Z,27.08
2023-04-21T14:58:43.090Z,27.01
2023-04-21T15:02:46.396Z,26.86
2023-04-21T15:06:50.085Z,26.73
2023-04-21T15:10:53.514Z,26.64
2023-04-21T15:14:58.680Z,26.58
2023-04-21T15:19:01.969Z,26.53
2023-04-21T15:23:06.795Z,26.45
2023-04-21T15:27:09.887Z,26.39
2023-04-21T15:31:14.825Z,26.37
2023-04-21T15:35:18.205Z,26.35
2023-04-21T15:39:21.756Z,26.31
2023-04-21T15:43:25.892Z,26.24
2023-04-21T15:47:31.008Z,26.07
2023-04-21T15:51:35.782Z,25.84
2023-04-21T15:55:40.284Z,25.61
2023-04-21T15:59:43.524Z,25.38
2023-04-21T16:03:49.422Z,25.17
2023-04-21T16:07:52.900Z,24.97
2023-04-21T16:11:57.097Z,24.78
2023-04-21T16:16:00.131Z,24.58
2023-04-21T16:20:06.337Z,24.42
2023-04-21T16:24:11.287Z,24.24
2023-04-21T16:28:16.646Z,24.06
2023-04-21T16:32:20.780Z,23.89
2023-04-21T16:36:25.957Z,23.71
2023-04-21T16:40:29.297Z,23.51
2023-04-21T16:44:32.575Z,23.26
2023-04-21T16:49:08.924Z,23.01
2023-04-21T17:03:46.370Z,22.34
2023-04-21T17:08:12.959Z,22.12
2023-04-21T17:12:40.581Z,21.98
2023-04-21T17:17:21.278Z,21.75
2023-04-21T17:22:14.124Z,21.39
2023-04-21T17:26:40.211Z,21.08
2023-04-21T17:32:03.514Z,20.89
2023-04-21T17:36:40.940Z,20.59
2023-04-21T17:41:00.030Z,20.34
2023-04-21T17:45:25.613Z,20.04
2023-04-21T17:54:18.090Z,19.57
2023-04-21T17:58:20.988Z,19.34
2023-04-21T18:02:24.775Z,19.11
2023-04-21T18:06:28.798Z,18.91
2023-04-21T18:10:33.436Z,18.71
2023-04-21T18:14:36.714Z,18.50
2023-04-21T18:18:41.389Z,18.32
2023-04-21T18:22:44.790Z,18.16
2023-04-21T18:26:53.080Z,18.01
2023-04-21T18:30:56.617Z,17.86
2023-04-21T18:35:00.497Z,17.72
2023-04-21T18:39:03.432Z,17.59
2023-04-21T18:43:09.815Z,17.46
2023-04-21T18:47:14.107Z,17.35
2023-04-21T18:51:18.921Z,17.26
2023-04-21T18:55:23.825Z,17.16
2023-04-21T18:59:28.536Z,17.07
2023-04-21T19:03:32.227Z,16.95
2023-04-21T19:07:36.879Z,16.83
2023-04-21T19:11:40.179Z,16.73
2023-04-21T19:15:45.903Z,16.61
2023-04-21T19:19:49.998Z,16.47
2023-04-21T19:23:55.008Z,16.35
2023-04-21T19:27:59.135Z,16.21
2023-04-21T19:32:05.561Z,16.07
2023-04-21T19:36:09.671Z,15.91
2023-04-21T19:40:13.654Z,15.76
2023-04-21T19:44:16.721Z,15.60
2023-04-21T19:48:21.634Z,15.46
2023-04-21T19:52:25.199Z,15.33
2023-04-21T19:56:30.185Z,15.21
2023-04-21T20:00:33.815Z,15.10
2023-04-21T20:04:39.772Z,15.00
2023-04-21T20:08:43.296Z,14.89
2023-04-21T20:12:46.392Z,14.80
2023-04-21T20:16:50.731Z,14.75
2023-04-21T20:20:55.635Z,14.70
2023-04-21T20:24:59.463Z,14.66
2023-04-21T20:29:02.465Z,14.63
2023-04-21T20:33:06.017Z,14.61
2023-04-21T20:37:12.156Z,14.60
2023-04-21T20:41:15.943Z,14.56
2023-04-21T20:45:20.204Z,14.53
2023-04-21T20:49:23.556Z,14.46
2023-04-21T20:53:28.070Z,14.41
2023-04-21T20:57:31.407Z,14.35
2023-04-21T21:01:39.397Z,14.29
2023-04-21T21:05:44.195Z,14.26
2023-04-21T21:09:49.771Z,14.21
2023-04-21T21:13:53.127Z,14.19
2023-04-21T21:17:56.461Z,14.16
2023-04-21T21:22:00.202Z,14.10
2023-04-21T21:26:04.729Z,14.06
2023-04-21T21:30:09.993Z,13.98
2023-04-21T21:34:14.680Z,13.91
2023-04-21T21:38:17.917Z,13.82
2023-04-21T21:42:22.935Z,13.73
2023-04-21T21:46:26.312Z,13.63
2023-04-21T21:50:29.785Z,13.54
2023-04-21T21:54:33.098Z,13.44
2023-04-21T21:58:38.049Z,13.36
2023-04-21T22:02:42.547Z,13.25
2023-04-21T22:06:47.091Z,13.15
2023-04-21T22:10:50.108Z,13.06
2023-04-21T22:14:55.787Z,13.00
2023-04-21T22:19:00.166Z,12.94
2023-04-21T22:23:03.645Z,12.89
2023-04-21T22:27:07.650Z,12.86
2023-04-21T22:31:12.995Z,12.83
2023-04-21T22:35:16.765Z,12.79
2023-04-21T22:39:20.234Z,12.73
2023-04-21T22:43:23.777Z,12.67
2023-04-21T22:47:29.117Z,12.58
2023-04-21T22:51:33.157Z,12.47
2023-04-21T22:55:36.597Z,12.38
2023-04-21T22:59:40.439Z,12.29
2023-04-21T23:03:45.251Z,12.22
2023-04-21T23:07:48.963Z,12.15
2023-04-21T23:11:52.300Z,12.11
2023-04-21T23:15:55.595Z,12.04
2023-04-21T23:20:02.777Z,11.99
2023-04-21T23:24:06.835Z,11.92
2023-04-21T23:28:12.410Z,11.87
2023-04-21T23:32:16.289Z,11.85
2023-04-21T23:36:21.301Z,11.85
2023-04-21T23:40:25.010Z,11.81
2023-04-21T23:44:28.826Z,11.75
2023-04-21T23:48:32.295Z,11.69
2023-04-21T23:52:37.277Z,11.60
2023-04-21T23:56:40.676Z,11.51
